createdAt,value
2022-08-30T00:02:10.770Z,95.70
2022-08-30T00:04:37.662Z,95.70
2022-08-30T00:07:04.794Z,95.70
2022-08-30T00:09:32.644Z,95.70
2022-08-30T00:11:59.623Z,95.70
2022-08-30T00:14:27.521Z,95.70
2022-08-30T00:16:54.444Z,95.70
2022-08-30T00:19:21.300Z,95.70
2022-08-30T00:21:48.146Z,95.70
2022-08-30T00:24:15.281Z,95.70
2022-08-30T00:26:42.101Z,95.70
2022-08-30T00:29:08.884Z,95.70
2022-08-30T00:31:35.825Z,95.70
2022-08-30T00:34:02.889Z,95.70
2022-08-30T00:36:29.685Z,95.70
2022-08-30T00:38:56.589Z,95.70
2022-08-30T00:41:23.482Z,95.70
2022-08-30T00:43:50.346Z,95.70
2022-08-30T00:46:17.251Z,95.70
2022-08-30T00:48:47.258Z,95.70
2022-08-30T00:51:15.565Z,95.70
2022-08-30T00:53:48.187Z,95.70
2022-08-30T00:56:15.477Z,95.70
2022-08-30T00:58:45.504Z,95.70
2022-08-30T01:01:13.028Z,95.60
2022-08-30T01:03:40.824Z,95.40
2022-08-30T01:06:07.936Z,95.40
2022-08-30T01:08:35.314Z,95.30
2022-08-30T01:11:03.736Z,95.40
2022-08-30T01:13:31.242Z,95.40
2022-08-30T01:16:00.158Z,95.50
2022-08-30T01:18:27.723Z,95.60
2022-08-30T01:21:28.992Z,95.60
2022-08-30T01:23:58.891Z,95.60
2022-08-30T01:26:27.794Z,95.70
2022-08-30T01:28:59.583Z,95.70
2022-08-30T01:31:27.969Z,95.70
2022-08-30T01:33:54.940Z,95.70
2022-08-30T01:36:21.914Z,95.70
2022-08-30T01:38:56.889Z,95.70
2022-08-30T01:41:30.264Z,95.70
2022-08-30T01:43:58.697Z,95.70
2022-08-30T01:46:29.293Z,95.70
2022-08-30T01:48:58.072Z,95.70
2022-08-30T01:51:27.519Z,95.70
2022-08-30T01:53:54.930Z,95.70
2022-08-30T01:56:22.824Z,95.70
2022-08-30T01:58:49.885Z,95.70
2022-08-30T02:01:19.801Z,95.70
2022-08-30T02:03:48.490Z,95.70
2022-08-30T02:06:18.408Z,95.70
2022-08-30T02:08:45.507Z,95.70
2022-08-30T02:11:12.817Z,95.70
2022-08-30T02:13:40.967Z,95.70
2022-08-30T02:16:09.958Z,95.70
2022-08-30T02:18:37.640Z,95.70
2022-08-30T02:21:04.788Z,95.70
2022-08-30T02:23:31.612Z,95.70
2022-08-30T02:25:58.936Z,95.70
2022-08-30T02:28:26.016Z,95.70
2022-08-30T02:30:53.640Z,95.70
2022-08-30T02:33:20.582Z,95.60
2022-08-30T02:35:47.708Z,95.60
2022-08-30T02:38:14.700Z,95.60
2022-08-30T02:40:41.875Z,95.50
2022-08-30T02:43:08.875Z,95.40
2022-08-30T02:45:35.773Z,95.40
2022-08-30T02:48:02.971Z,95.40
2022-08-30T02:50:29.785Z,95.30
2022-08-30T02:52:57.144Z,95.30
2022-08-30T02:55:24.042Z,95.30
2022-08-30T02:57:50.824Z,95.30
2022-08-30T03:00:20.324Z,95.30
2022-08-30T03:02:47.382Z,95.30
2022-08-30T03:05:15.193Z,95.30
2022-08-30T03:07:42.343Z,95.30
2022-08-30T03:10:10.896Z,95.30
2022-08-30T03:12:38.192Z,95.20
2022-08-30T03:15:06.578Z,95.20
2022-08-30T03:17:33.483Z,95.10
2022-08-30T03:20:02.261Z,95.00
2022-08-30T03:22:29.395Z,95.00
2022-08-30T03:25:01.367Z,95.00
2022-08-30T03:27:29.210Z,95.00
2022-08-30T03:29:56.467Z,94.90
2022-08-30T03:32:23.594Z,94.90
2022-08-30T03:34:50.452Z,94.90
2022-08-30T03:37:17.456Z,94.90
2022-08-30T03:39:45.581Z,94.90
2022-08-30T03:42:12.712Z,95.00
2022-08-30T03:44:39.919Z,95.00
2022-08-30T03:47:08.436Z,94.90
2022-08-30T03:49:35.236Z,94.90
2022-08-30T03:52:02.269Z,94.90
2022-08-30T03:54:29.137Z,94.80
2022-08-30T03:56:56.302Z,94.70
2022-08-30T03:59:23.576Z,94.70
2022-08-30T04:01:50.522Z,94.60
2022-08-30T04:04:20.921Z,94.50
2022-08-30T04:06:49.219Z,94.50
2022-08-30T04:09:16.406Z,94.30
2022-08-30T04:11:43.259Z,94.30
2022-08-30T04:14:10.094Z,94.30
2022-08-30T04:16:36.918Z,94.30
2022-08-30T04:19:04.053Z,94.30
2022-08-30T04:21:31.034Z,94.20
2022-08-30T04:23:57.917Z,94.10
2022-08-30T04:26:29.282Z,94.10
2022-08-30T04:28:56.583Z,94.10
2022-08-30T04:31:23.698Z,94.10
2022-08-30T04:33:50.695Z,94.00
2022-08-30T04:36:17.566Z,94.00
2022-08-30T04:38:44.343Z,94.00
2022-08-30T04:41:16.296Z,94.00
2022-08-30T04:43:49.083Z,94.00
2022-08-30T04:46:16.441Z,93.90
2022-08-30T04:48:43.429Z,93.80
2022-08-30T04:51:14.111Z,93.80
2022-08-30T04:53:43.878Z,93.70
2022-08-30T04:56:13.388Z,93.70
2022-08-30T04:58:40.149Z,93.70
2022-08-30T05:01:12.401Z,93.70
2022-08-30T05:03:41.082Z,93.70
2022-08-30T05:06:07.968Z,93.80
2022-08-30T05:08:34.795Z,93.70
2022-08-30T05:11:04.678Z,93.70
2022-08-30T05:13:35.771Z,93.60
2022-08-30T05:16:06.237Z,93.50
2022-08-30T05:18:33.476Z,93.50
2022-08-30T05:21:08.921Z,93.50
2022-08-30T05:23:38.749Z,93.50
2022-08-30T05:26:12.131Z,93.40
2022-08-30T05:28:39.606Z,93.40
2022-08-30T05:31:15.483Z,93.40
2022-08-30T05:33:43.673Z,93.40
2022-08-30T05:36:11.885Z,93.40
2022-08-30T05:38:39.294Z,93.30
2022-08-30T05:41:10.750Z,93.40
2022-08-30T05:43:38.906Z,93.40
2022-08-30T05:46:11.400Z,93.40
2022-08-30T05:48:40.680Z,93.40
2022-08-30T05:51:17.577Z,93.50
2022-08-30T05:53:45.674Z,93.50
2022-08-30T05:56:14.712Z,93.50
2022-08-30T05:58:42.019Z,93.50
2022-08-30T06:01:18.697Z,93.50
2022-08-30T06:03:45.482Z,93.50
2022-08-30T06:06:12.263Z,93.50
2022-08-30T06:08:39.034Z,93.40
2022-08-30T06:11:05.885Z,93.40
2022-08-30T06:13:32.694Z,93.40
2022-08-30T06:15:59.587Z,93.40
2022-08-30T06:18:28.407Z,93.20
2022-08-30T06:20:55.706Z,93.20
2022-08-30T06:23:22.827Z,93.30
2022-08-30T06:25:49.644Z,93.30
2022-08-30T06:28:16.948Z,93.10
2022-08-30T06:30:44.981Z,93.20
2022-08-30T06:33:13.891Z,93.40
2022-08-30T06:35:56.825Z,93.60
2022-08-30T06:38:26.108Z,93.90
2022-08-30T06:40:52.890Z,94.50
2022-08-30T06:43:19.854Z,95.10
2022-08-30T06:45:46.713Z,95.70
2022-08-30T06:48:14.740Z,95.70
2022-08-30T06:50:42.213Z,95.70
2022-08-30T06:53:09.903Z,95.70
2022-08-30T06:55:37.424Z,95.70
2022-08-30T06:58:04.534Z,95.70
2022-08-30T07:00:31.380Z,95.70
2022-08-30T07:02:58.893Z,95.70
2022-08-30T07:05:25.799Z,95.00
2022-08-30T07:07:55.471Z,95.00
2022-08-30T07:10:22.294Z,94.70
2022-08-30T07:12:49.358Z,94.30
2022-08-30T07:15:16.438Z,93.70
2022-08-30T07:18:01.775Z,93.60
2022-08-30T07:20:40.024Z,92.90
2022-08-30T07:23:08.620Z,92.10
2022-08-30T07:25:39.819Z,92.10
2022-08-30T07:28:07.904Z,91.10
2022-08-30T07:30:35.200Z,90.70
2022-08-30T07:33:02.268Z,90.30
2022-08-30T07:35:29.065Z,90.10
2022-08-30T07:37:55.885Z,88.90
2022-08-30T07:40:22.783Z,88.60
2022-08-30T07:42:49.735Z,88.50
2022-08-30T07:45:16.930Z,88.40
2022-08-30T07:47:43.783Z,87.10
2022-08-30T07:50:10.764Z,87.50
2022-08-30T07:55:10.064Z,86.60
2022-08-30T07:57:37.109Z,86.50
2022-08-30T08:00:05.180Z,86.20
2022-08-30T08:02:32.942Z,86.30
2022-08-30T08:05:00.779Z,86.40
2022-08-30T08:07:27.633Z,86.70
2022-08-30T08:09:54.501Z,87.10
2022-08-30T08:12:21.325Z,87.20
2022-08-30T08:14:48.188Z,87.70
2022-08-30T08:17:15.000Z,88.40
2022-08-30T08:19:41.826Z,88.70
2022-08-30T08:22:20.626Z,89.00
2022-08-30T08:24:48.957Z,89.10
2022-08-30T08:27:16.484Z,89.00
2022-08-30T08:29:43.355Z,89.50
2022-08-30T08:32:10.225Z,88.70
2022-08-30T08:34:37.395Z,89.10
2022-08-30T08:37:04.426Z,89.40
2022-08-30T08:39:31.329Z,89.80
2022-08-30T08:42:04.328Z,89.60
2022-08-30T08:44:34.446Z,89.40
2022-08-30T08:47:22.732Z,89.50
2022-08-30T08:49:51.724Z,89.50
2022-08-30T08:52:54.953Z,88.90
2022-08-30T08:55:22.783Z,87.90
2022-08-30T08:57:49.952Z,88.40
2022-08-30T09:00:17.003Z,87.40
2022-08-30T09:02:47.415Z,86.80
2022-08-30T09:05:22.090Z,87.20
2022-08-30T09:07:54.249Z,87.30
2022-08-30T09:10:40.415Z,85.30
2022-08-30T09:13:08.344Z,84.70
2022-08-30T09:15:40.947Z,83.90
2022-08-30T09:18:19.186Z,83.90
2022-08-30T09:20:50.392Z,82.90
2022-08-30T09:23:29.989Z,82.00
2022-08-30T09:26:05.614Z,81.10
2022-08-30T09:28:49.471Z,81.30
2022-08-30T09:31:19.458Z,80.50
2022-08-30T09:34:06.237Z,80.40
2022-08-30T09:37:03.069Z,80.50
2022-08-30T09:39:37.407Z,79.80
2022-08-30T09:42:14.367Z,79.90
2022-08-30T09:47:24.175Z,79.60
2022-08-30T09:52:12.396Z,80.40
2022-08-30T09:55:19.873Z,80.50
2022-08-30T09:58:05.837Z,81.40
2022-08-30T10:00:37.454Z,81.60
2022-08-30T10:03:43.731Z,81.50
2022-08-30T10:06:19.547Z,80.90
2022-08-30T10:08:51.588Z,78.20
2022-08-30T10:11:24.461Z,78.40
2022-08-30T10:14:19.606Z,80.60
2022-08-30T10:16:58.378Z,79.30
2022-08-30T10:19:47.271Z,77.70
2022-08-30T10:22:15.578Z,76.20
2022-08-30T10:24:50.192Z,75.10
2022-08-30T10:30:13.849Z,73.90
2022-08-30T10:33:28.749Z,74.60
2022-08-30T10:36:02.635Z,76.10
2022-08-30T10:38:37.269Z,74.70
2022-08-30T10:41:33.394Z,73.00
2022-08-30T10:44:26.811Z,73.10
2022-08-30T10:47:23.441Z,72.00
2022-08-30T10:49:55.217Z,71.50
2022-08-30T10:52:54.498Z,72.40
2022-08-30T10:55:22.199Z,72.60
2022-08-30T10:57:50.080Z,72.20
2022-08-30T11:00:28.249Z,72.60
2022-08-30T11:03:36.835Z,71.90
2022-08-30T11:06:12.101Z,71.40
2022-08-30T11:08:52.086Z,72.20
2022-08-30T11:11:55.897Z,71.60
2022-08-30T11:14:25.470Z,71.50
2022-08-30T11:17:00.204Z,71.20
2022-08-30T11:19:41.442Z,70.50
2022-08-30T11:22:38.144Z,70.20
2022-08-30T11:25:15.928Z,69.90
2022-08-30T11:27:53.252Z,68.30
2022-08-30T11:30:26.970Z,67.80
2022-08-30T11:33:24.711Z,68.60
2022-08-30T11:35:53.585Z,67.60
2022-08-30T11:38:26.577Z,67.00
2022-08-30T11:40:56.597Z,67.50
2022-08-30T11:43:36.558Z,66.60
2022-08-30T11:46:26.913Z,66.30
2022-08-30T11:48:59.365Z,68.70
2022-08-30T11:51:38.430Z,67.10
2022-08-30T11:54:20.509Z,66.90
2022-08-30T11:56:54.593Z,67.00
2022-08-30T11:59:55.485Z,67.30
2022-08-30T12:02:44.881Z,66.90
2022-08-30T12:05:53.175Z,66.20
2022-08-30T12:08:21.314Z,67.10
2022-08-30T12:11:02.514Z,66.80
2022-08-30T12:13:37.256Z,67.30
2022-08-30T12:16:23.950Z,67.20
2022-08-30T12:18:53.864Z,67.30
2022-08-30T12:21:22.221Z,66.80
2022-08-30T12:23:52.485Z,67.60
2022-08-30T12:26:26.123Z,66.50
2022-08-30T12:29:13.195Z,66.20
2022-08-30T12:31:45.899Z,66.40
2022-08-30T12:34:43.551Z,65.80
2022-08-30T12:37:28.673Z,66.10
2022-08-30T12:40:18.651Z,67.40
2022-08-30T12:43:01.052Z,66.40
2022-08-30T12:45:43.072Z,67.60
2022-08-30T12:48:12.317Z,66.60
2022-08-30T12:50:53.057Z,66.10
2022-08-30T12:53:32.024Z,65.90
2022-08-30T12:56:11.067Z,65.80
2022-08-30T12:58:51.639Z,66.60
2022-08-30T13:01:31.265Z,67.00
2022-08-30T13:03:58.391Z,67.50
2022-08-30T13:06:39.826Z,68.50
2022-08-30T13:09:06.999Z,69.50
2022-08-30T13:11:34.336Z,69.50
2022-08-30T13:14:29.674Z,70.20
2022-08-30T13:17:21.439Z,70.80
2022-08-30T13:20:09.521Z,72.40
2022-08-30T13:22:38.573Z,72.30
2022-08-30T13:25:07.849Z,72.80
2022-08-30T13:35:13.449Z,72.80
2022-08-30T13:37:50.090Z,72.70
2022-08-30T13:40:19.744Z,73.20
2022-08-30T13:42:46.889Z,72.70
2022-08-30T13:48:11.439Z,73.10
2022-08-30T13:50:38.970Z,72.90
2022-08-30T13:53:05.981Z,72.60
2022-08-30T13:55:34.183Z,72.70
2022-08-30T13:58:05.365Z,72.80
2022-08-30T14:00:36.766Z,73.00
2022-08-30T14:03:05.579Z,73.10
2022-08-30T14:06:09.860Z,72.10
2022-08-30T14:08:49.213Z,72.10
2022-08-30T14:11:19.388Z,72.60
2022-08-30T14:16:35.188Z,72.00
2022-08-30T14:19:02.408Z,72.00
2022-08-30T14:21:29.465Z,72.80
2022-08-30T14:23:57.954Z,71.80
2022-08-30T14:26:33.069Z,72.00
2022-08-30T14:29:06.093Z,71.80
2022-08-30T14:31:40.735Z,71.10
2022-08-30T14:34:09.837Z,71.30
2022-08-30T14:36:41.398Z,71.80
2022-08-30T14:39:11.951Z,71.50
2022-08-30T14:44:54.796Z,72.00
2022-08-30T14:47:20.478Z,72.20
2022-08-30T14:49:47.560Z,72.00
2022-08-30T14:52:14.647Z,72.30
2022-08-30T14:54:41.481Z,71.60
2022-08-30T14:57:08.396Z,72.40
2022-08-30T14:59:35.233Z,72.40
2022-08-30T15:02:03.301Z,72.30
2022-08-30T15:04:30.297Z,71.90
2022-08-30T15:06:57.988Z,71.00
2022-08-30T15:09:25.549Z,71.90
2022-08-30T15:11:55.112Z,71.50
2022-08-30T15:14:22.598Z,72.10
2022-08-30T15:16:49.500Z,71.90
2022-08-30T15:19:17.681Z,72.60
2022-08-30T15:21:48.411Z,72.80
2022-08-30T15:24:19.034Z,72.60
2022-08-30T15:26:51.997Z,70.90
2022-08-30T15:29:20.097Z,71.20
2022-08-30T15:31:49.681Z,71.70
2022-08-30T15:34:19.177Z,72.90
2022-08-30T15:36:47.008Z,71.20
2022-08-30T15:39:15.313Z,71.10
2022-08-30T15:41:44.312Z,71.70
2022-08-30T15:44:12.305Z,71.80
2022-08-30T15:46:43.120Z,72.30
2022-08-30T15:49:14.460Z,72.30
2022-08-30T15:51:46.084Z,72.40
2022-08-30T15:54:15.610Z,71.70
2022-08-30T15:56:44.219Z,71.40
2022-08-30T15:59:12.109Z,72.10
2022-08-30T16:01:39.187Z,72.30
2022-08-30T16:04:06.243Z,72.50
2022-08-30T16:06:35.385Z,72.90
2022-08-30T16:09:03.770Z,73.30
2022-08-30T16:11:32.018Z,73.90
2022-08-30T16:14:09.345Z,73.70
2022-08-30T16:16:41.010Z,73.60
2022-08-30T16:19:11.508Z,73.60
2022-08-30T16:21:41.832Z,73.70
2022-08-30T16:24:11.499Z,74.90
2022-08-30T16:26:49.779Z,74.90
2022-08-30T16:29:25.327Z,75.30
2022-08-30T16:31:54.186Z,74.80
2022-08-30T16:34:22.933Z,75.60
2022-08-30T16:36:50.295Z,75.90
2022-08-30T16:39:25.054Z,75.90
2022-08-30T16:41:54.464Z,76.10
2022-08-30T16:44:29.805Z,75.70
2022-08-30T16:46:59.172Z,75.60
2022-08-30T16:49:32.582Z,75.40
2022-08-30T16:52:03.371Z,75.80
2022-08-30T16:54:32.138Z,75.80
2022-08-30T16:57:00.409Z,76.50
2022-08-30T16:59:27.896Z,76.20
2022-08-30T17:02:01.164Z,76.70
2022-08-30T17:04:28.432Z,76.40
2022-08-30T17:06:55.512Z,76.60
2022-08-30T17:09:25.757Z,76.60
2022-08-30T17:52:40.377Z,80.90
2022-08-30T17:55:22.988Z,81.40
2022-08-30T18:05:26.640Z,83.10
2022-08-30T18:08:36.801Z,83.80
2022-08-30T18:11:09.469Z,84.10
2022-08-30T18:13:51.479Z,84.50
2022-08-30T18:17:42.599Z,84.80
2022-08-30T18:20:15.175Z,85.10
2022-08-30T18:23:02.805Z,85.40
2022-08-30T21:29:31.902Z,95.70
2022-08-30T21:37:36.284Z,95.70
2022-08-30T21:40:48.758Z,95.70
2022-08-30T23:04:06.870Z,95.70
2022-08-30T23:06:33.920Z,95.70
2022-08-30T23:09:01.434Z,95.70
2022-08-30T23:11:28.548Z,95.70
2022-08-30T23:13:57.631Z,95.70
2022-08-30T23:16:24.672Z,95.70
2022-08-30T23:18:51.633Z,95.70
2022-08-30T23:21:25.418Z,95.70
2022-08-30T23:24:11.834Z,95.70
2022-08-30T23:26:57.917Z,95.70
2022-08-30T23:29:44.468Z,95.70
2022-08-30T23:32:30.335Z,95.70
2022-08-30T23:35:15.793Z,95.70
2022-08-30T23:38:01.115Z,95.70
2022-08-30T23:40:46.639Z,95.70
2022-08-30T23:43:32.394Z,95.70
2022-08-30T23:46:19.423Z,95.70
2022-08-30T23:49:06.751Z,95.70
2022-08-30T23:51:53.375Z,95.70
2022-08-30T23:54:38.773Z,95.70
2022-08-30T23:57:24.338Z,95.70
